FBSK/GBE METAR and TAF weather

Enter ICAO airport designator
Station Type Date Time Source
FBSK METAR 2022/07/03 14:00 UTC NOAA

FBSK 031400Z 07004KT 010V120 9999 FEW030 BKN070 21/07 Q1024 NOSIG


Station Type Date Time Source
FBSK Decoded METAR 2022/07/03 14:00 UTC NOAA

Seretse Khama International Airport, Botswana (FBSK) 24-13S 025-55E 1005M
Jul 03, 2022 - 10:00 AM EDT / 2022.07.03 1400 UTC
Wind: from the ENE (070 degrees) at 5 MPH (4 KT) (direction variable):0
Visibility: greater than 7 mile(s):0
Sky conditions: mostly cloudy
Temperature: 69 F (21 C)
Dew Point: 44 F (7 C)
Relative Humidity: 40%
Pressure (altimeter): 30.24 in. Hg (1024 hPa)
ob: FBSK 031400Z 07004KT 010V120 9999 FEW030 BKN070 21/07 Q1024 NOSIG
cycle: 14

Station Type Date Time Source
FBSK TAF 2022/07/03 12:00 UTC NOAA

TAF FBSK 031000Z 0312/0418 10005KT CAVOK=

Example: see airport list